GCHI/VDE METAR and TAF weather

Enter ICAO airport designator
Station Type Date Time Source
GCHI METAR 2022/01/29 01:30 UTC NOAA

GCHI 290130Z AUTO 03008KT 350V050 9999 SCT028 17/12 Q1019


Station Type Date Time Source
GCHI Decoded METAR 2022/01/29 01:30 UTC NOAA

Hierro / Aeropuerto, Spain (GCHI) 27-49N 017-53W 32M
Jan 28, 2022 - 08:30 PM EST / 2022.01.29 0130 UTC
Wind: from the NNE (030 degrees) at 9 MPH (8 KT) (direction variable):0
Visibility: greater than 7 mile(s):0
Sky conditions: partly cloudy
Temperature: 62 F (17 C)
Dew Point: 53 F (12 C)
Relative Humidity: 72%
Pressure (altimeter): 30.09 in. Hg (1019 hPa)
ob: GCHI 290130Z AUTO 03008KT 350V050 9999 SCT028 17/12 Q1019
cycle: 1

Station Type Date Time Source
GCHI TAF 2022/01/28 21:00 UTC NOAA

TAF GCHI 282000Z 2821/2921 03006KT 9999 SCT030 TX21/2914Z TN16/2906Z

Example: see airport list